sensor_id;sensor_type;location;lat;lon;timestamp;pressure;altitude;pressure_sealevel;temperature;humidity
6833;BME280;3454;42.654;23.378;2023-05-11T00:01:24;64023.97;;;10.33;97.25
6833;BME280;3454;42.654;23.378;2023-05-11T00:03:49;64030.88;;;10.37;96.29
6833;BME280;3454;42.654;23.378;2023-05-11T00:06:15;64029.56;;;10.33;96.65
6833;BME280;3454;42.654;23.378;2023-05-11T00:08:40;64029.78;;;10.36;96.22
6833;BME280;3454;42.654;23.378;2023-05-11T00:11:07;64033.81;;;10.42;94.94
6833;BME280;3454;42.654;23.378;2023-05-11T00:13:32;64018.84;;;10.26;98.64
6833;BME280;3454;42.654;23.378;2023-05-11T00:15:58;64022.44;;;10.27;97.72
6833;BME280;3454;42.654;23.378;2023-05-11T00:18:23;64026.47;;;10.33;98.13
6833;BME280;3454;42.654;23.378;2023-05-11T00:20:48;64045.97;;;10.48;98.41
6833;BME280;3454;42.654;23.378;2023-05-11T00:23:14;64036.34;;;10.42;98.64
6833;BME280;3454;42.654;23.378;2023-05-11T00:25:40;64014.47;;;10.22;95.61
6833;BME280;3454;42.654;23.378;2023-05-11T00:28:05;64010.28;;;10.20;97.41
6833;BME280;3454;42.654;23.378;2023-05-11T00:30:32;64013.59;;;10.23;97.00
6833;BME280;3454;42.654;23.378;2023-05-11T00:32:57;64011.16;;;10.19;97.83
6833;BME280;3454;42.654;23.378;2023-05-11T00:35:23;64016.66;;;10.24;97.85
6833;BME280;3454;42.654;23.378;2023-05-11T00:37:48;64008.44;;;10.16;99.19
6833;BME280;3454;42.654;23.378;2023-05-11T00:40:14;64011.94;;;10.22;98.68
6833;BME280;3454;42.654;23.378;2023-05-11T00:42:40;64003.72;;;10.14;99.90
6833;BME280;3454;42.654;23.378;2023-05-11T00:45:05;64013.34;;;10.21;99.32
6833;BME280;3454;42.654;23.378;2023-05-11T00:47:31;64019.91;;;10.27;98.41
6833;BME280;3454;42.654;23.378;2023-05-11T00:49:57;63998.34;;;10.04;98.63
6833;BME280;3454;42.654;23.378;2023-05-11T00:52:23;64010.09;;;10.18;98.26
6833;BME280;3454;42.654;23.378;2023-05-11T00:54:48;64005.16;;;10.13;97.90
6833;BME280;3454;42.654;23.378;2023-05-11T00:57:15;64003.28;;;10.09;96.80
6833;BME280;3454;42.654;23.378;2023-05-11T00:59:40;64014.47;;;10.22;97.09
6833;BME280;3454;42.654;23.378;2023-05-11T01:02:06;64006.25;;;10.14;96.53
6833;BME280;3454;42.654;23.378;2023-05-11T01:04:32;63995.84;;;10.04;97.85
6833;BME280;3454;42.654;23.378;2023-05-11T01:09:48;63978.00;;;9.90;95.56
6833;BME280;3454;42.654;23.378;2023-05-11T01:18:10;63968.69;;;9.82;96.86
6833;BME280;3454;42.654;23.378;2023-05-11T01:20:43;63965.44;;;9.79;96.68
6833;BME280;3454;42.654;23.378;2023-05-11T01:23:44;63963.00;;;9.74;97.12
6833;BME280;3454;42.654;23.378;2023-05-11T01:26:33;63947.06;;;9.64;96.91
6833;BME280;3454;42.654;23.378;2023-05-11T01:31:55;63930.75;;;9.45;98.57
6833;BME280;3454;42.654;23.378;2023-05-11T01:34:25;63932.63;;;9.49;99.75
6833;BME280;3454;42.654;23.378;2023-05-11T01:37:13;63941.16;;;9.54;99.38
6833;BME280;3454;42.654;23.378;2023-05-11T01:39:49;63926.63;;;9.43;99.51
6833;BME280;3454;42.654;23.378;2023-05-11T01:42:20;63920.72;;;9.33;99.61
6833;BME280;3454;42.654;23.378;2023-05-11T01:44:49;63924.75;;;9.39;100.00
6833;BME280;3454;42.654;23.378;2023-05-11T01:47:16;63932.94;;;9.47;98.53
6833;BME280;3454;42.654;23.378;2023-05-11T01:49:43;63925.28;;;9.40;99.57
6833;BME280;3454;42.654;23.378;2023-05-11T01:52:10;63920.38;;;9.35;98.34
6833;BME280;3454;42.654;23.378;2023-05-11T01:54:37;63919.28;;;9.34;98.43
6833;BME280;3454;42.654;23.378;2023-05-11T01:57:04;63917.09;;;9.32;97.80
6833;BME280;3454;42.654;23.378;2023-05-11T01:59:31;63895.78;;;9.12;98.62
6833;BME280;3454;42.654;23.378;2023-05-11T02:01:57;63908.13;;;9.21;98.52
6833;BME280;3454;42.654;23.378;2023-05-11T02:04:25;63901.47;;;9.20;98.46
6833;BME280;3454;42.654;23.378;2023-05-11T02:06:54;63905.09;;;9.21;99.12
6833;BME280;3454;42.654;23.378;2023-05-11T02:09:21;63908.34;;;9.24;97.02
6833;BME280;3454;42.654;23.378;2023-05-11T02:11:48;63905.28;;;9.23;96.91
6833;BME280;3454;42.654;23.378;2023-05-11T02:14:16;63919.63;;;9.32;97.09
6833;BME280;3454;42.654;23.378;2023-05-11T02:16:45;63908.56;;;9.26;96.60
6833;BME280;3454;42.654;23.378;2023-05-11T02:19:12;63910.53;;;9.26;96.93
6833;BME280;3454;42.654;23.378;2023-05-11T02:21:38;63906.16;;;9.22;95.69
6833;BME280;3454;42.654;23.378;2023-05-11T02:24:06;63912.72;;;9.28;95.79
6833;BME280;3454;42.654;23.378;2023-05-11T02:26:32;63911.66;;;9.27;95.23
6833;BME280;3454;42.654;23.378;2023-05-11T02:28:58;63908.13;;;9.21;96.58
6833;BME280;3454;42.654;23.378;2023-05-11T02:31:28;63909.47;;;9.25;96.27
6833;BME280;3454;42.654;23.378;2023-05-11T02:33:57;63897.97;;;9.14;96.96
6833;BME280;3454;42.654;23.378;2023-05-11T02:36:27;63885.63;;;9.05;97.86
6833;BME280;3454;42.654;23.378;2023-05-11T02:38:58;63906.16;;;9.22;97.34
6833;BME280;3454;42.654;23.378;2023-05-11T02:41:27;63923.66;;;9.38;95.55
6833;BME280;3454;42.654;23.378;2023-05-11T02:43:55;63934.03;;;9.48;97.88
6833;BME280;3454;42.654;23.378;2023-05-11T02:46:28;63941.69;;;9.55;96.78
6833;BME280;3454;42.654;23.378;2023-05-11T02:48:57;63933.19;;;9.49;96.97
6833;BME280;3454;42.654;23.378;2023-05-11T02:51:35;63926.94;;;9.41;96.68
6833;BME280;3454;42.654;23.378;2023-05-11T02:54:01;63941.47;;;9.52;96.63
6833;BME280;3454;42.654;23.378;2023-05-11T02:56:28;63932.72;;;9.44;95.74
6833;BME280;3454;42.654;23.378;2023-05-11T02:58:53;63948.03;;;9.58;96.35
6833;BME280;3454;42.654;23.378;2023-05-11T03:01:19;63939.75;;;9.55;96.93
6833;BME280;3454;42.654;23.378;2023-05-11T03:03:45;63934.91;;;9.46;98.24
6833;BME280;3454;42.654;23.378;2023-05-11T03:06:10;63934.59;;;9.48;96.74
6833;BME280;3454;42.654;23.378;2023-05-11T03:08:36;63930.53;;;9.42;96.96
6833;BME280;3454;42.654;23.378;2023-05-11T03:11:02;63914.03;;;9.31;96.83
6833;BME280;3454;42.654;23.378;2023-05-11T03:13:29;63919.63;;;9.32;98.23
6833;BME280;3454;42.654;23.378;2023-05-11T03:15:56;63929.66;;;9.44;97.09
6833;BME280;3454;42.654;23.378;2023-05-11T03:18:25;63919.84;;;9.35;97.65
6833;BME280;3454;42.654;23.378;2023-05-11T03:20:51;63937.88;;;9.51;95.49
6833;BME280;3454;42.654;23.378;2023-05-11T03:23:17;63925.84;;;9.40;97.19
6833;BME280;3454;42.654;23.378;2023-05-11T03:25:43;63929.13;;;9.43;97.01
6833;BME280;3454;42.654;23.378;2023-05-11T03:28:09;63923.44;;;9.36;97.37
6833;BME280;3454;42.654;23.378;2023-05-11T03:30:38;63914.91;;;9.30;97.26
6833;BME280;3454;42.654;23.378;2023-05-11T03:33:04;63917.09;;;9.32;97.41
6833;BME280;3454;42.654;23.378;2023-05-11T03:35:32;63923.09;;;9.38;96.35
6833;BME280;3454;42.654;23.378;2023-05-11T03:37:59;63926.41;;;9.41;95.92
6833;BME280;3454;42.654;23.378;2023-05-11T03:40:27;63919.84;;;9.35;96.07
6833;BME280;3454;42.654;23.378;2023-05-11T03:42:56;63927.28;;;9.39;96.16
6833;BME280;3454;42.654;23.378;2023-05-11T03:45:24;63934.25;;;9.50;96.61
6833;BME280;3454;42.654;23.378;2023-05-11T03:47:53;63932.94;;;9.47;96.40
6833;BME280;3454;42.654;23.378;2023-05-11T03:50:20;63920.91;;;9.36;97.54
6833;BME280;3454;42.654;23.378;2023-05-11T03:52:46;63924.22;;;9.39;96.60
6833;BME280;3454;42.654;23.378;2023-05-11T03:55:12;63915.69;;;9.33;97.02
6833;BME280;3454;42.654;23.378;2023-05-11T03:57:38;63921.47;;;9.36;100.00
6833;BME280;3454;42.654;23.378;2023-05-11T04:00:04;63924.97;;;9.42;99.74
6833;BME280;3454;42.654;23.378;2023-05-11T04:02:29;63934.25;;;9.50;100.00
6833;BME280;3454;42.654;23.378;2023-05-11T04:04:55;63929.34;;;9.46;99.90
6833;BME280;3454;42.654;23.378;2023-05-11T04:07:20;63941.47;;;9.52;99.89
6833;BME280;3454;42.654;23.378;2023-05-11T04:09:53;63944.22;;;9.55;100.00
6833;BME280;3454;42.654;23.378;2023-05-11T04:12:18;63932.41;;;9.46;99.68
6833;BME280;3454;42.654;23.378;2023-05-11T04:14:44;63940.94;;;9.52;100.00
6833;BME280;3454;42.654;23.378;2023-05-11T04:17:10;63941.16;;;9.54;100.00
6833;BME280;3454;42.654;23.378;2023-05-11T04:19:35;63943.34;;;9.56;99.83
6833;BME280;3454;42.654;23.378;2023-05-11T04:22:00;63927.47;;;9.42;100.00
6833;BME280;3454;42.654;23.378;2023-05-11T04:24:26;63916.53;;;9.31;100.00
6833;BME280;3454;42.654;23.378;2023-05-11T04:26:55;63929.47;;;9.41;100.00
6833;BME280;3454;42.654;23.378;2023-05-11T04:29:21;63930.53;;;9.42;100.00
6833;BME280;3454;42.654;23.378;2023-05-11T04:31:46;63931.31;;;9.45;100.00
6833;BME280;3454;42.654;23.378;2023-05-11T04:34:12;63918.72;;;9.33;100.00
6833;BME280;3454;42.654;23.378;2023-05-11T04:36:37;63935.13;;;9.49;100.00
6833;BME280;3454;42.654;23.378;2023-05-11T04:39:02;63958.31;;;9.72;100.00
6833;BME280;3454;42.654;23.378;2023-05-11T04:41:28;63981.94;;;9.89;99.29
6833;BME280;3454;42.654;23.378;2023-05-11T04:43:54;63991.22;;;9.98;98.50
6833;BME280;3454;42.654;23.378;2023-05-11T04:46:19;63959.19;;;9.71;98.76
6833;BME280;3454;42.654;23.378;2023-05-11T04:48:45;63967.72;;;9.76;99.37
6833;BME280;3454;42.654;23.378;2023-05-11T04:51:10;63981.06;;;9.91;98.71
6833;BME280;3454;42.654;23.378;2023-05-11T04:53:36;63994.75;;;10.03;98.64
6833;BME280;3454;42.654;23.378;2023-05-11T04:56:01;64030.09;;;10.34;100.00
6833;BME280;3454;42.654;23.378;2023-05-11T04:58:26;64001.31;;;10.09;99.01
6833;BME280;3454;42.654;23.378;2023-05-11T05:00:52;63993.31;;;10.04;98.35
6833;BME280;3454;42.654;23.378;2023-05-11T05:03:18;63975.59;;;9.86;99.48
6833;BME280;3454;42.654;23.378;2023-05-11T05:05:43;63972.31;;;9.83;99.67
6833;BME280;3454;42.654;23.378;2023-05-11T05:08:09;63968.81;;;9.77;100.00
6833;BME280;3454;42.654;23.378;2023-05-11T05:10:34;63955.38;;;9.67;99.26
6833;BME280;3454;42.654;23.378;2023-05-11T05:13:00;63938.97;;;9.52;100.00
6833;BME280;3454;42.654;23.378;2023-05-11T05:15:25;63940.59;;;9.54;100.00
6833;BME280;3454;42.654;23.378;2023-05-11T05:17:50;63916.22;;;9.33;100.00
6833;BME280;3454;42.654;23.378;2023-05-11T05:20:16;63941.16;;;9.54;100.00
6833;BME280;3454;42.654;23.378;2023-05-11T05:22:41;63936.03;;;9.47;100.00
6833;BME280;3454;42.654;23.378;2023-05-11T05:25:07;63938.63;;;9.54;100.00
6833;BME280;3454;42.654;23.378;2023-05-11T05:27:33;63987.84;;;9.99;100.00
6833;BME280;3454;42.654;23.378;2023-05-11T05:29:58;63969.56;;;9.80;100.00
6833;BME280;3454;42.654;23.378;2023-05-11T05:32:24;63951.75;;;9.66;100.00
6833;BME280;3454;42.654;23.378;2023-05-11T05:34:49;63942.78;;;9.56;100.00
6833;BME280;3454;42.654;23.378;2023-05-11T05:37:15;63933.72;;;9.50;100.00
6833;BME280;3454;42.654;23.378;2023-05-11T05:39:40;63941.38;;;9.57;100.00
6833;BME280;3454;42.654;23.378;2023-05-11T05:42:05;63947.16;;;9.60;100.00
6833;BME280;3454;42.654;23.378;2023-05-11T05:44:31;63944.97;;;9.58;100.00
6833;BME280;3454;42.654;23.378;2023-05-11T05:46:56;63923.22;;;9.33;100.00
6833;BME280;3454;42.654;23.378;2023-05-11T05:49:22;63899.84;;;9.18;100.00
6833;BME280;3454;42.654;23.378;2023-05-11T05:51:47;63908.03;;;9.26;100.00
6833;BME280;3454;42.654;23.378;2023-05-11T05:54:14;63908.34;;;9.24;100.00
6833;BME280;3454;42.654;23.378;2023-05-11T05:56:40;63905.09;;;9.21;100.00
6833;BME280;3454;42.654;23.378;2023-05-11T05:59:06;63905.28;;;9.23;100.00
6833;BME280;3454;42.654;23.378;2023-05-11T06:01:33;63919.63;;;9.32;100.00
6833;BME280;3454;42.654;23.378;2023-05-11T06:03:59;63919.63;;;9.32;100.00
6833;BME280;3454;42.654;23.378;2023-05-11T06:06:24;63926.06;;;9.43;100.00
6833;BME280;3454;42.654;23.378;2023-05-11T06:08:50;63912.16;;;9.27;100.00
6833;BME280;3454;42.654;23.378;2023-05-11T06:11:15;63926.41;;;9.41;100.00
6833;BME280;3454;42.654;23.378;2023-05-11T06:13:41;63909.66;;;9.27;100.00
6833;BME280;3454;42.654;23.378;2023-05-11T06:16:06;63923.09;;;9.38;100.00
6833;BME280;3454;42.654;23.378;2023-05-11T06:18:31;63933.84;;;9.45;100.00
6833;BME280;3454;42.654;23.378;2023-05-11T06:20:58;63937.88;;;9.51;100.00
6833;BME280;3454;42.654;23.378;2023-05-11T06:23:23;63928.34;;;9.40;100.00
6833;BME280;3454;42.654;23.378;2023-05-11T06:25:49;63916.78;;;9.34;100.00
6833;BME280;3454;42.654;23.378;2023-05-11T06:28:15;63914.34;;;9.29;100.00
6833;BME280;3454;42.654;23.378;2023-05-11T06:30:40;63913.81;;;9.29;100.00
6833;BME280;3454;42.654;23.378;2023-05-11T06:33:06;63921.78;;;9.34;100.00
6833;BME280;3454;42.654;23.378;2023-05-11T06:35:31;63918.72;;;9.33;100.00
6833;BME280;3454;42.654;23.378;2023-05-11T06:37:56;63920.38;;;9.35;100.00
6833;BME280;3454;42.654;23.378;2023-05-11T06:40:22;63926.94;;;9.41;100.00
6833;BME280;3454;42.654;23.378;2023-05-11T06:42:47;63918.72;;;9.33;100.00
6833;BME280;3454;42.654;23.378;2023-05-11T06:45:13;63910.53;;;9.26;100.00
6833;BME280;3454;42.654;23.378;2023-05-11T06:47:38;63916.00;;;9.31;100.00
6833;BME280;3454;42.654;23.378;2023-05-11T06:50:04;63934.38;;;9.46;100.00
6833;BME280;3454;42.654;23.378;2023-05-11T06:52:30;63940.06;;;9.53;100.00
6833;BME280;3454;42.654;23.378;2023-05-11T06:54:55;63945.53;;;9.58;100.00
6833;BME280;3454;42.654;23.378;2023-05-11T06:57:21;63946.63;;;9.59;100.00
6833;BME280;3454;42.654;23.378;2023-05-11T06:59:46;63944.78;;;9.55;100.00
6833;BME280;3454;42.654;23.378;2023-05-11T07:02:12;63958.09;;;9.70;100.00
6833;BME280;3454;42.654;23.378;2023-05-11T07:04:37;63947.38;;;9.62;99.73
6833;BME280;3454;42.654;23.378;2023-05-11T07:07:03;63935.69;;;9.49;100.00
6833;BME280;3454;42.654;23.378;2023-05-11T07:09:28;63918.94;;;9.36;100.00
6833;BME280;3454;42.654;23.378;2023-05-11T07:11:54;63915.78;;;9.28;100.00
6833;BME280;3454;42.654;23.378;2023-05-11T07:14:20;63908.91;;;9.24;100.00
6833;BME280;3454;42.654;23.378;2023-05-11T07:16:45;63912.50;;;9.25;100.00
6833;BME280;3454;42.654;23.378;2023-05-11T07:19:10;63923.09;;;9.38;100.00
6833;BME280;3454;42.654;23.378;2023-05-11T07:21:36;63928.25;;;9.45;100.00
6833;BME280;3454;42.654;23.378;2023-05-11T07:24:02;63928.34;;;9.40;100.00
6833;BME280;3454;42.654;23.378;2023-05-11T07:26:28;63938.41;;;9.52;99.97
6833;BME280;3454;42.654;23.378;2023-05-11T07:28:53;63933.50;;;9.47;99.37
6833;BME280;3454;42.654;23.378;2023-05-11T07:31:19;63931.84;;;9.46;99.25
6833;BME280;3454;42.654;23.378;2023-05-11T07:33:44;63929.66;;;9.44;99.29
6833;BME280;3454;42.654;23.378;2023-05-11T07:36:10;63928.34;;;9.40;99.72
6833;BME280;3454;42.654;23.378;2023-05-11T07:38:35;63928.59;;;9.43;98.15
6833;BME280;3454;42.654;23.378;2023-05-11T07:41:02;63941.16;;;9.54;97.74
6833;BME280;3454;42.654;23.378;2023-05-11T07:43:28;63940.06;;;9.53;98.28
6833;BME280;3454;42.654;23.378;2023-05-11T07:45:53;63946.06;;;9.59;97.89
6833;BME280;3454;42.654;23.378;2023-05-11T07:48:19;63947.06;;;9.64;98.15
6833;BME280;3454;42.654;23.378;2023-05-11T07:50:45;63973.19;;;9.81;96.57
6833;BME280;3454;42.654;23.378;2023-05-11T07:53:10;63985.22;;;9.92;94.64
6833;BME280;3454;42.654;23.378;2023-05-11T07:55:36;63991.78;;;9.98;94.31
6833;BME280;3454;42.654;23.378;2023-05-11T07:58:01;63993.97;;;10.00;92.26
6833;BME280;3454;42.654;23.378;2023-05-11T08:00:27;64014.78;;;10.20;91.94
6833;BME280;3454;42.654;23.378;2023-05-11T08:02:53;64012.81;;;10.20;90.55
6833;BME280;3454;42.654;23.378;2023-05-11T08:05:18;64022.09;;;10.29;89.74
6833;BME280;3454;42.654;23.378;2023-05-11T08:07:51;64034.72;;;10.40;90.83
6833;BME280;3454;42.654;23.378;2023-05-11T08:10:16;64046.75;;;10.51;90.01
6833;BME280;3454;42.654;23.378;2023-05-11T08:12:42;64043.25;;;10.46;90.05
6833;BME280;3454;42.654;23.378;2023-05-11T08:15:08;64071.91;;;10.74;86.30
6833;BME280;3454;42.654;23.378;2023-05-11T08:17:33;64071.69;;;10.72;85.36
6833;BME280;3454;42.654;23.378;2023-05-11T08:19:59;64074.31;;;10.79;85.01
6833;BME280;3454;42.654;23.378;2023-05-11T08:22:25;64079.03;;;10.81;86.23
6833;BME280;3454;42.654;23.378;2023-05-11T08:24:51;64097.09;;;10.97;85.11
6833;BME280;3454;42.654;23.378;2023-05-11T08:27:16;64099.84;;;11.00;83.09
6833;BME280;3454;42.654;23.378;2023-05-11T08:29:42;64101.13;;;11.04;84.58
6833;BME280;3454;42.654;23.378;2023-05-11T08:32:07;64115.16;;;11.14;82.69
6833;BME280;3454;42.654;23.378;2023-05-11T08:34:32;64127.44;;;11.28;82.60
6833;BME280;3454;42.654;23.378;2023-05-11T08:36:58;64141.44;;;11.38;84.44
6833;BME280;3454;42.654;23.378;2023-05-11T08:39:26;64169.63;;;11.66;83.85
6833;BME280;3454;42.654;23.378;2023-05-11T08:41:52;64152.06;;;11.50;79.82
6833;BME280;3454;42.654;23.378;2023-05-11T08:44:19;64141.44;;;11.38;80.69
6833;BME280;3454;42.654;23.378;2023-05-11T08:46:47;64138.16;;;11.35;81.52
6833;BME280;3454;42.654;23.378;2023-05-11T08:49:17;64115.91;;;11.17;80.37
6833;BME280;3454;42.654;23.378;2023-05-11T08:51:44;64131.91;;;11.27;81.66
6833;BME280;3454;42.654;23.378;2023-05-11T08:54:10;64125.00;;;11.23;82.26
6833;BME280;3454;42.654;23.378;2023-05-11T08:56:39;64138.94;;;11.38;83.01
6833;BME280;3454;42.654;23.378;2023-05-11T08:59:06;64139.25;;;11.36;81.99
6833;BME280;3454;42.654;23.378;2023-05-11T09:01:34;64123.94;;;11.22;84.13
6833;BME280;3454;42.654;23.378;2023-05-11T09:04:01;64130.16;;;11.30;85.81
6833;BME280;3454;42.654;23.378;2023-05-11T09:06:28;64147.69;;;11.46;86.37
6833;BME280;3454;42.654;23.378;2023-05-11T09:08:55;64158.66;;;11.56;86.91
6833;BME280;3454;42.654;23.378;2023-05-11T09:11:22;64152.06;;;11.50;86.67
6833;BME280;3454;42.654;23.378;2023-05-11T09:13:49;64164.47;;;11.59;86.89
6833;BME280;3454;42.654;23.378;2023-05-11T09:16:15;64158.97;;;11.54;87.24
6833;BME280;3454;42.654;23.378;2023-05-11T09:18:51;64198.13;;;11.93;89.01
6833;BME280;3454;42.654;23.378;2023-05-11T09:21:17;64194.84;;;11.90;85.12
6833;BME280;3454;42.654;23.378;2023-05-11T09:23:43;64183.31;;;11.79;86.25
6833;BME280;3454;42.654;23.378;2023-05-11T09:26:35;64199.34;;;11.89;85.58
6833;BME280;3454;42.654;23.378;2023-05-11T09:29:00;64208.00;;;12.02;87.31
6833;BME280;3454;42.654;23.378;2023-05-11T09:31:38;64182.78;;;11.78;86.26
6833;BME280;3454;42.654;23.378;2023-05-11T09:34:11;64189.91;;;11.85;86.46
6833;BME280;3454;42.654;23.378;2023-05-11T09:36:38;64184.22;;;11.77;85.45
6833;BME280;3454;42.654;23.378;2023-05-11T09:39:04;64168.63;;;11.61;88.12
6833;BME280;3454;42.654;23.378;2023-05-11T09:41:30;64154.28;;;11.52;87.78
6833;BME280;3454;42.654;23.378;2023-05-11T09:44:08;64159.31;;;11.52;88.05
6833;BME280;3454;42.654;23.378;2023-05-11T09:46:38;64154.28;;;11.52;88.07
6833;BME280;3454;42.654;23.378;2023-05-11T09:49:05;64130.28;;;11.26;88.53
6833;BME280;3454;42.654;23.378;2023-05-11T09:51:33;64136.75;;;11.36;87.58
6833;BME280;3454;42.654;23.378;2023-05-11T09:53:59;64141.44;;;11.38;86.94
6833;BME280;3454;42.654;23.378;2023-05-11T09:56:50;64132.91;;;11.33;88.72
6833;BME280;3454;42.654;23.378;2023-05-11T09:59:37;64148.03;;;11.44;87.71
6833;BME280;3454;42.654;23.378;2023-05-11T10:02:22;64153.81;;;11.47;87.41
6833;BME280;3454;42.654;23.378;2023-05-11T10:04:57;64142.00;;;11.39;87.56
6833;BME280;3454;42.654;23.378;2023-05-11T10:07:34;64151.63;;;11.45;88.12
6833;BME280;3454;42.654;23.378;2023-05-11T10:10:04;64139.81;;;11.37;86.19
6833;BME280;3454;42.654;23.378;2023-05-11T10:12:31;64145.63;;;11.40;87.93
6833;BME280;3454;42.654;23.378;2023-05-11T10:15:03;64129.41;;;11.27;86.86
6833;BME280;3454;42.654;23.378;2023-05-11T10:17:29;64144.72;;;11.41;88.08
6833;BME280;3454;42.654;23.378;2023-05-11T10:19:56;64151.31;;;11.47;85.96
6833;BME280;3454;42.654;23.378;2023-05-11T10:22:26;64146.06;;;11.45;85.87
6833;BME280;3454;42.654;23.378;2023-05-11T10:24:53;64150.22;;;11.46;85.61
6833;BME280;3454;42.654;23.378;2023-05-11T10:27:21;64150.56;;;11.44;85.75
6833;BME280;3454;42.654;23.378;2023-05-11T10:29:47;64168.06;;;11.60;86.40
6833;BME280;3454;42.654;23.378;2023-05-11T10:32:15;64169.94;;;11.64;86.24
6833;BME280;3454;42.654;23.378;2023-05-11T10:34:42;64168.06;;;11.60;87.59
6833;BME280;3454;42.654;23.378;2023-05-11T10:37:08;64182.34;;;11.73;87.40
6833;BME280;3454;42.654;23.378;2023-05-11T10:39:38;64201.53;;;11.91;83.98
6833;BME280;3454;42.654;23.378;2023-05-11T10:42:19;64223.13;;;12.13;86.49
6833;BME280;3454;42.654;23.378;2023-05-11T10:44:59;64232.63;;;12.24;85.35
6833;BME280;3454;42.654;23.378;2023-05-11T11:01:49;64215.25;;;12.04;81.10
6833;BME280;3454;42.654;23.378;2023-05-11T11:04:22;64201.53;;;11.91;81.26
6833;BME280;3454;42.654;23.378;2023-05-11T11:07:02;64177.31;;;11.73;80.87
6833;BME280;3454;42.654;23.378;2023-05-11T11:12:14;64166.34;;;11.63;82.40
6833;BME280;3454;42.654;23.378;2023-05-11T11:15:06;64186.59;;;11.82;81.03
6833;BME280;3454;42.654;23.378;2023-05-11T11:17:33;64206.47;;;11.96;81.53
6833;BME280;3454;42.654;23.378;2023-05-11T11:20:04;64220.72;;;12.09;79.82
6833;BME280;3454;42.654;23.378;2023-05-11T11:32:43;64204.69;;;11.99;81.49
6833;BME280;3454;42.654;23.378;2023-05-11T11:40:47;64269.72;;;12.56;78.71
6833;BME280;3454;42.654;23.378;2023-05-11T11:43:20;64288.03;;;12.75;77.60
6833;BME280;3454;42.654;23.378;2023-05-11T11:45:56;64333.16;;;13.12;75.02
6833;BME280;3454;42.654;23.378;2023-05-11T11:51:05;64272.44;;;12.58;76.49
6833;BME280;3454;42.654;23.378;2023-05-11T11:56:04;64250.75;;;12.41;78.00
6833;BME280;3454;42.654;23.378;2023-05-11T12:01:11;64225.88;;;12.16;80.28
6833;BME280;3454;42.654;23.378;2023-05-11T12:03:38;64193.84;;;11.84;80.88
6833;BME280;3454;42.654;23.378;2023-05-11T12:06:04;64171.59;;;11.66;81.19
6833;BME280;3454;42.654;23.378;2023-05-11T12:08:32;64175.97;;;11.70;81.42
6833;BME280;3454;42.654;23.378;2023-05-11T12:10:58;64196.25;;;11.89;81.70
6833;BME280;3454;42.654;23.378;2023-05-11T12:13:24;64205.25;;;11.99;80.10
6833;BME280;3454;42.654;23.378;2023-05-11T12:16:09;64183.09;;;11.76;81.13
6833;BME280;3454;42.654;23.378;2023-05-11T12:18:36;64203.59;;;11.98;82.05
6833;BME280;3454;42.654;23.378;2023-05-11T12:21:02;64189.34;;;11.85;81.31
6833;BME280;3454;42.654;23.378;2023-05-11T12:23:28;64218.50;;;12.07;82.20
6833;BME280;3454;42.654;23.378;2023-05-11T12:26:04;64203.28;;;12.00;80.73
6833;BME280;3454;42.654;23.378;2023-05-11T12:28:29;64220.72;;;12.09;80.11
6833;BME280;3454;42.654;23.378;2023-05-11T12:30:55;64240.88;;;12.32;79.09
6833;BME280;3454;42.654;23.378;2023-05-11T12:33:21;64259.09;;;12.44;79.45
6833;BME280;3454;42.654;23.378;2023-05-11T12:35:51;64267.53;;;12.54;79.34
6833;BME280;3454;42.654;23.378;2023-05-11T12:38:17;64217.09;;;12.08;78.70
6833;BME280;3454;42.654;23.378;2023-05-11T12:40:51;64213.47;;;12.07;78.62
6833;BME280;3454;42.654;23.378;2023-05-11T12:43:18;64221.81;;;12.10;79.58
6833;BME280;3454;42.654;23.378;2023-05-11T12:45:45;64226.41;;;12.16;80.14
6833;BME280;3454;42.654;23.378;2023-05-11T12:48:11;64242.84;;;12.31;79.13
6833;BME280;3454;42.654;23.378;2023-05-11T12:50:41;64251.84;;;12.42;78.50
6833;BME280;3454;42.654;23.378;2023-05-11T12:53:14;64257.66;;;12.45;77.50
6833;BME280;3454;42.654;23.378;2023-05-11T12:55:40;64239.56;;;12.28;78.20
6833;BME280;3454;42.654;23.378;2023-05-11T12:58:15;64214.34;;;12.05;79.72
6833;BME280;3454;42.654;23.378;2023-05-11T13:00:53;64201.94;;;11.96;79.35
6833;BME280;3454;42.654;23.378;2023-05-11T13:03:26;64190.47;;;11.86;79.83
6833;BME280;3454;42.654;23.378;2023-05-11T13:06:09;64192.97;;;11.86;80.20
6833;BME280;3454;42.654;23.378;2023-05-11T13:08:39;64198.44;;;11.91;80.55
6833;BME280;3454;42.654;23.378;2023-05-11T13:11:24;64205.81;;;12.00;80.20
6833;BME280;3454;42.654;23.378;2023-05-11T13:13:52;64208.31;;;12.00;79.85
6833;BME280;3454;42.654;23.378;2023-05-11T13:16:27;64222.56;;;12.13;79.57
6833;BME280;3454;42.654;23.378;2023-05-11T13:19:01;64227.16;;;12.19;79.78
6833;BME280;3454;42.654;23.378;2023-05-11T13:21:27;64227.72;;;12.20;80.24
6833;BME280;3454;42.654;23.378;2023-05-11T13:23:54;64246.69;;;12.35;79.89
6833;BME280;3454;42.654;23.378;2023-05-11T13:26:28;64254.91;;;12.42;79.58
6833;BME280;3454;42.654;23.378;2023-05-11T13:28:53;64262.59;;;12.49;78.30
6833;BME280;3454;42.654;23.378;2023-05-11T13:31:19;64266.44;;;12.53;78.33
6833;BME280;3454;42.654;23.378;2023-05-11T13:33:45;64266.66;;;12.55;78.18
6833;BME280;3454;42.654;23.378;2023-05-11T13:36:11;64261.16;;;12.50;77.92
6833;BME280;3454;42.654;23.378;2023-05-11T13:38:36;64253.25;;;12.41;78.39
6833;BME280;3454;42.654;23.378;2023-05-11T13:41:01;64260.94;;;12.48;78.40
6833;BME280;3454;42.654;23.378;2023-05-11T13:43:27;64247.03;;;12.33;78.71
6833;BME280;3454;42.654;23.378;2023-05-11T13:45:54;64251.84;;;12.42;79.11
6833;BME280;3454;42.654;23.378;2023-05-11T13:48:19;64257.09;;;12.44;78.65
6833;BME280;3454;42.654;23.378;2023-05-11T13:50:44;64260.19;;;12.45;78.58
6833;BME280;3454;42.654;23.378;2023-05-11T13:53:10;64252.19;;;12.40;78.91
6833;BME280;3454;42.654;23.378;2023-05-11T13:55:35;64250.75;;;12.41;79.90
6833;BME280;3454;42.654;23.378;2023-05-11T13:58:03;64254.38;;;12.42;78.58
6833;BME280;3454;42.654;23.378;2023-05-11T14:00:28;64254.38;;;12.42;78.96
6833;BME280;3454;42.654;23.378;2023-05-11T14:02:54;64256.00;;;12.43;78.85
6833;BME280;3454;42.654;23.378;2023-05-11T14:05:19;64259.84;;;12.47;79.56
6833;BME280;3454;42.654;23.378;2023-05-11T14:07:45;64260.94;;;12.48;79.44
6833;BME280;3454;42.654;23.378;2023-05-11T14:10:10;64247.47;;;12.38;78.59